Time;durP1;ratioP1;P1;durP2;ratioP2;P2;SDS_P1;SDS_P2;PMS_P1;PMS_P2;Temp;Humidity;BMP_temperature;BMP_pressure;BME280_temperature;BME280_humidity;BME280_pressure;Samples;Min_cycle;Max_cycle;Signal;HPM_P1;HPM_P2
2022/04/17 00:01:32;;;;;;;66.28;6.40;;;;;;;4.09;100.00;99340.19;5001388;28;20091;-58
2022/04/17 00:03:57;;;;;;;63.38;5.97;;;;;;;5.31;100.00;99341.56;5004922;28;20026;-58
2022/04/17 00:06:23;;;;;;;73.70;6.85;;;;;;;3.67;100.00;99340.75;5001364;28;20147;-58
2022/04/17 00:08:49;;;;;;;76.05;7.32;;;;;;;3.91;100.00;99338.34;5002097;28;20026;-57
2022/04/17 00:11:14;;;;;;;76.00;6.93;;;;;;;3.64;100.00;99333.00;5003518;28;20407;-58
2022/04/17 00:13:40;;;;;;;51.25;5.50;;;;;;;3.76;100.00;99337.38;5003219;28;20030;-58
2022/04/17 00:16:05;;;;;;;71.15;6.50;;;;;;;3.63;100.00;99338.13;5000448;28;20089;-58
2022/04/17 00:18:30;;;;;;;76.05;7.03;;;;;;;3.45;100.00;99323.34;4999719;28;20100;-57
2022/04/17 00:20:58;;;;;;;55.30;5.88;;;;;;;3.78;100.00;99322.75;5002551;28;20132;-58
2022/04/17 00:23:24;;;;;;;64.05;6.25;;;;;;;3.38;100.00;99329.31;5000936;28;20113;-57
2022/04/17 00:25:49;;;;;;;60.25;6.50;;;;;;;3.27;100.00;99324.94;5002650;28;20117;-58
2022/04/17 00:28:14;;;;;;;72.72;6.85;;;;;;;3.23;100.00;99318.00;5003832;28;20065;-57
2022/04/17 00:30:40;;;;;;;73.63;6.63;;;;;;;3.02;100.00;99323.81;5001801;28;20035;-58
2022/04/17 00:33:05;;;;;;;73.82;6.57;;;;;;;3.65;100.00;99314.06;5003453;28;20026;-58
2022/04/17 00:35:30;;;;;;;57.65;5.72;;;;;;;4.91;100.00;99315.63;5004704;28;20724;-56
2022/04/17 00:37:56;;;;;;;73.60;6.57;;;;;;;4.91;100.00;99311.31;5003265;28;20034;-57
2022/04/17 00:40:21;;;;;;;61.78;6.15;;;;;;;5.20;100.00;99313.06;5002149;28;20060;-56
2022/04/17 00:42:47;;;;;;;71.47;6.38;;;;;;;4.56;100.00;99316.38;5003313;28;20025;-58
2022/04/17 00:45:14;;;;;;;64.30;6.22;;;;;;;4.69;100.00;99312.97;5001782;28;20784;-57
2022/04/17 00:47:40;;;;;;;66.85;7.10;;;;;;;4.16;100.00;99318.72;5002970;28;20018;-57
2022/04/17 00:50:07;;;;;;;60.88;6.20;;;;;;;4.51;100.00;99310.31;5002213;28;20033;-56
2022/04/17 00:52:33;;;;;;;52.03;5.63;;;;;;;4.52;100.00;99312.91;5000367;28;20033;-57
2022/04/17 00:55:02;;;;;;;52.10;5.35;;;;;;;5.48;100.00;99314.00;5001391;28;20025;-59
2022/04/17 00:57:27;;;;;;;52.00;6.30;;;;;;;4.29;100.00;99309.34;4999124;28;20034;-57
2022/04/17 00:59:53;;;;;;;58.10;6.03;;;;;;;4.39;100.00;99301.66;5002764;28;20382;-57
2022/04/17 01:02:18;;;;;;;63.38;6.72;;;;;;;4.77;100.00;99306.09;5000255;28;20092;-57
2022/04/17 01:04:45;;;;;;;84.20;8.25;;;;;;;3.85;100.00;99297.88;5000649;28;20037;-58
2022/04/17 01:07:11;;;;;;;62.58;6.90;;;;;;;3.81;100.00;99285.81;5001985;28;20191;-57
2022/04/17 01:09:37;;;;;;;59.42;6.10;;;;;;;4.40;100.00;99285.25;5001206;28;20036;-57
2022/04/17 01:12:08;;;;;;;69.55;6.93;;;;;;;4.12;100.00;99293.72;5001576;28;20080;-60
2022/04/17 01:14:36;;;;;;;58.40;6.53;;;;;;;3.59;100.00;99295.97;4999376;28;20037;-58
2022/04/17 01:17:02;;;;;;;57.70;6.28;;;;;;;3.31;100.00;99291.41;5002756;28;20817;-59
2022/04/17 01:19:32;;;;;;;52.55;5.93;;;;;;;2.99;100.00;99297.13;5000259;28;20029;-58
2022/04/17 01:21:57;;;;;;;59.33;6.68;;;;;;;3.62;100.00;99288.25;5000216;28;20042;-58
2022/04/17 01:27:06;;;;;;;60.28;6.53;;;;;;;3.21;100.00;99283.59;5002807;28;20040;-59
2022/04/17 01:29:36;;;;;;;57.88;6.13;;;;;;;4.00;100.00;99282.47;5000218;28;20049;-58
2022/04/17 01:32:04;;;;;;;50.30;5.80;;;;;;;3.02;100.00;99279.13;5001443;28;20080;-59
2022/04/17 01:34:30;;;;;;;55.78;5.78;;;;;;;3.83;100.00;99278.94;5000732;28;20025;-60
2022/04/17 01:36:56;;;;;;;57.40;6.45;;;;;;;3.57;100.00;99266.72;5002943;28;20128;-58
2022/04/17 01:39:22;;;;;;;62.60;6.30;;;;;;;3.34;100.00;99273.41;5004279;28;20120;-58
2022/04/17 01:41:49;;;;;;;63.47;6.38;;;;;;;3.84;100.00;99270.31;5004008;28;20065;-58
2022/04/17 01:44:18;;;;;;;68.40;6.93;;;;;;;3.72;100.00;99271.13;5005024;28;20034;-58
2022/04/17 01:46:47;;;;;;;55.92;6.43;;;;;;;2.82;100.00;99268.63;5006582;28;20637;-58
2022/04/17 01:49:15;;;;;;;67.60;6.47;;;;;;;3.88;100.00;99272.09;5005728;28;20030;-57
2022/04/17 01:51:41;;;;;;;53.20;6.03;;;;;;;4.78;100.00;99263.88;5005779;28;20037;-59
2022/04/17 01:54:11;;;;;;;61.83;6.38;;;;;;;4.56;100.00;99267.25;5008988;28;20647;-58
2022/04/17 01:56:38;;;;;;;63.45;6.03;;;;;;;4.13;100.00;99267.06;5005218;28;20038;-59
2022/04/17 01:59:06;;;;;;;53.35;6.45;;;;;;;3.74;100.00;99261.66;5006361;28;20028;-57
2022/04/17 02:01:32;;;;;;;67.30;6.88;;;;;;;2.69;100.00;99263.31;5006275;28;20519;-57
2022/04/17 02:03:59;;;;;;;54.85;6.43;;;;;;;2.71;100.00;99255.63;5006010;28;20025;-57
2022/04/17 02:06:24;;;;;;;60.63;6.82;;;;;;;2.33;100.00;99253.44;5004911;28;20038;-58
2022/04/17 02:08:51;;;;;;;57.30;5.78;;;;;;;3.87;100.00;99241.94;5004606;28;20022;-57
2022/04/17 02:11:16;;;;;;;62.97;6.47;;;;;;;2.98;100.00;99249.88;5005009;28;20042;-59
2022/04/17 02:13:42;;;;;;;65.75;7.15;;;;;;;2.53;100.00;99245.09;5003710;28;20034;-58
2022/04/17 02:16:07;;;;;;;60.90;6.82;;;;;;;2.56;100.00;99238.28;5003699;28;20037;-58
2022/04/17 02:18:33;;;;;;;66.38;7.28;;;;;;;2.23;100.00;99231.88;5005431;28;20055;-59
2022/04/17 02:20:59;;;;;;;58.33;7.00;;;;;;;2.29;100.00;99233.66;5005996;28;20492;-59
2022/04/17 02:23:24;;;;;;;53.63;6.47;;;;;;;2.04;100.00;99240.22;5001159;28;20140;-59
2022/04/17 02:25:50;;;;;;;66.05;6.88;;;;;;;2.27;100.00;99240.53;5002334;28;20033;-58
2022/04/17 02:28:15;;;;;;;63.28;6.85;;;;;;;2.84;100.00;99231.69;5004338;28;20018;-58
2022/04/17 02:30:41;;;;;;;60.88;6.63;;;;;;;3.35;100.00;99227.00;5002766;28;20309;-59
2022/04/17 02:33:06;;;;;;;52.03;6.22;;;;;;;3.26;100.00;99232.94;5008473;28;20083;-57
2022/04/17 02:35:31;;;;;;;61.75;6.55;;;;;;;2.63;100.00;99231.50;5004067;28;20803;-59
2022/04/17 02:37:56;;;;;;;64.90;6.13;;;;;;;3.72;100.00;99234.97;5004102;28;20030;-58
2022/04/17 02:40:22;;;;;;;66.70;6.85;;;;;;;2.72;100.00;99225.56;5004224;28;20064;-57
2022/04/17 02:42:51;;;;;;;79.18;7.80;;;;;;;2.84;100.00;99229.13;5003294;28;20040;-57
2022/04/17 02:45:17;;;;;;;65.13;6.97;;;;;;;2.29;100.00;99231.09;5003101;28;20060;-58
2022/04/17 02:47:42;;;;;;;60.53;6.65;;;;;;;2.91;100.00;99224.03;5001687;28;20022;-58
2022/04/17 02:50:12;;;;;;;69.82;7.40;;;;;;;2.83;100.00;99227.41;5003221;28;20388;-57
2022/04/17 02:52:37;;;;;;;50.42;5.65;;;;;;;3.42;100.00;99230.50;5004820;28;20585;-58
2022/04/17 02:55:04;;;;;;;76.05;7.10;;;;;;;2.84;100.00;99231.69;5004886;28;20014;-57
2022/04/17 02:57:30;;;;;;;70.72;6.45;;;;;;;3.72;100.00;99229.81;5003381;28;20041;-59
2022/04/17 02:59:56;;;;;;;49.53;6.10;;;;;;;3.43;100.00;99221.88;5004783;28;20026;-58
2022/04/17 03:07:51;;;;;;;58.08;6.32;;;;;;;3.31;100.00;99211.47;5002549;28;20040;-57
2022/04/17 03:10:16;;;;;;;63.83;6.05;;;;;;;4.49;100.00;99221.59;5002263;28;20072;-59
2022/04/17 03:12:42;;;;;;;47.55;6.15;;;;;;;2.88;100.00;99217.97;5005916;28;20200;-56
2022/04/17 03:15:07;;;;;;;78.82;7.05;;;;;;;2.95;100.00;99216.34;5002329;28;20052;-55
2022/04/17 03:17:33;;;;;;;50.00;5.85;;;;;;;2.78;100.00;99210.16;5003684;28;20084;-58
2022/04/17 03:19:58;;;;;;;65.85;6.88;;;;;;;2.59;100.00;99209.09;5003753;28;20040;-56
2022/04/17 03:22:25;;;;;;;74.25;7.45;;;;;;;2.98;100.00;99207.75;5002675;28;20042;-56
2022/04/17 03:24:51;;;;;;;73.43;6.43;;;;;;;3.03;100.00;99217.28;5003477;28;20032;-57
2022/04/17 03:27:16;;;;;;;55.35;6.43;;;;;;;3.47;100.00;99215.88;5003505;28;20058;-57
2022/04/17 03:29:41;;;;;;;69.40;6.72;;;;;;;2.99;100.00;99209.50;5003426;28;20421;-55
2022/04/17 03:32:07;;;;;;;62.15;6.45;;;;;;;2.62;100.00;99204.84;5003878;28;20045;-56
2022/04/17 03:34:32;;;;;;;61.42;6.60;;;;;;;2.64;100.00;99194.56;5002058;28;20124;-55
2022/04/17 03:37:00;;;;;;;66.50;6.85;;;;;;;2.67;100.00;99198.03;5004117;28;20037;-55
2022/04/17 03:39:26;;;;;;;69.03;6.78;;;;;;;2.97;100.00;99195.72;5004653;28;20022;-56
2022/04/17 03:41:53;;;;;;;67.22;6.68;;;;;;;3.33;100.00;99199.44;5002205;28;20177;-56
2022/04/17 03:44:19;;;;;;;63.60;6.82;;;;;;;3.32;100.00;99198.59;5004161;28;20053;-55
2022/04/17 03:46:44;;;;;;;54.70;5.53;;;;;;;4.52;100.00;99196.63;5003380;28;20124;-58
2022/04/17 03:49:10;;;;;;;70.30;6.72;;;;;;;3.15;100.00;99185.56;5003996;28;20109;-54
2022/04/17 03:51:36;;;;;;;72.45;6.57;;;;;;;3.35;100.00;99190.88;5004134;28;20045;-57
2022/04/17 03:54:01;;;;;;;66.78;7.03;;;;;;;3.18;100.00;99183.03;5003267;28;20029;-56
2022/04/17 03:56:26;;;;;;;72.85;6.82;;;;;;;3.30;100.00;99194.28;5002219;28;20046;-57
2022/04/17 03:58:52;;;;;;;66.47;6.57;;;;;;;2.85;100.00;99197.34;5002486;28;20038;-57
2022/04/17 04:01:17;;;;;;;68.00;7.10;;;;;;;2.25;100.00;99193.28;5003848;28;20045;-60
2022/04/17 04:03:42;;;;;;;74.40;7.45;;;;;;;2.25;100.00;99188.16;5004109;28;20055;-59
2022/04/17 04:06:08;;;;;;;69.75;7.03;;;;;;;2.68;100.00;99191.16;5002200;28;20037;-60
2022/04/17 04:08:33;;;;;;;72.65;7.20;;;;;;;2.12;100.00;99198.28;5003368;28;20029;-59
2022/04/17 04:10:59;;;;;;;66.13;6.70;;;;;;;2.59;100.00;99198.81;5000352;28;20037;-60
2022/04/17 04:13:24;;;;;;;65.43;6.88;;;;;;;2.78;100.00;99194.72;5003726;28;20033;-60
2022/04/17 04:15:49;;;;;;;88.55;8.02;;;;;;;2.51;100.00;99197.00;5002146;28;20057;-59
2022/04/17 04:18:14;;;;;;;57.40;6.25;;;;;;;2.46;100.00;99197.81;5002279;28;20030;-60
2022/04/17 04:20:40;;;;;;;70.43;6.97;;;;;;;2.10;100.00;99210.28;5001729;28;20117;-59
2022/04/17 04:23:05;;;;;;;52.30;5.95;;;;;;;2.70;100.00;99208.38;5002685;28;20032;-58
2022/04/17 04:25:31;;;;;;;68.80;6.78;;;;;;;2.61;100.00;99205.72;5002561;28;20065;-58
2022/04/17 04:30:40;;;;;;;72.15;7.00;;;;;;;2.42;100.00;99201.19;5002402;28;20107;-59
2022/04/17 04:33:05;;;;;;;59.05;5.82;;;;;;;3.16;100.00;99207.06;5002854;28;20708;-58
2022/04/17 04:35:30;;;;;;;64.38;6.78;;;;;;;2.44;100.00;99208.09;5000133;28;20077;-56
2022/04/17 04:37:56;;;;;;;66.15;6.45;;;;;;;3.07;100.00;99207.88;5001494;28;20025;-56
2022/04/17 04:40:22;;;;;;;63.90;6.95;;;;;;;2.16;100.00;99208.63;5003233;28;20567;-54
2022/04/17 04:42:48;;;;;;;78.43;7.00;;;;;;;3.18;100.00;99206.22;5002046;28;20025;-56
2022/04/17 04:47:58;;;;;;;66.93;6.32;;;;;;;3.48;100.00;99194.41;5002785;28;20619;-57
2022/04/17 04:50:24;;;;;;;50.20;5.93;;;;;;;3.65;100.00;99191.94;5001722;28;20732;-56
2022/04/17 04:52:49;;;;;;;74.43;7.15;;;;;;;3.91;100.00;99192.06;5004695;28;20733;-57
2022/04/17 04:55:14;;;;;;;66.18;6.57;;;;;;;3.35;100.00;99183.16;5002132;28;20033;-57
2022/04/17 04:57:40;;;;;;;61.85;6.43;;;;;;;3.74;100.00;99191.13;5001793;28;20029;-60
2022/04/17 05:00:07;;;;;;;63.65;6.03;;;;;;;4.23;100.00;99194.78;5004474;28;20563;-58
2022/04/17 05:02:36;;;;;;;63.58;6.55;;;;;;;4.61;100.00;99188.88;5001075;28;20029;-57
2022/04/17 05:05:02;;;;;;;48.92;5.53;;;;;;;4.95;100.00;99188.06;4999905;28;20644;-57
2022/04/17 05:07:27;;;;;;;61.03;6.57;;;;;;;5.65;100.00;99181.13;5000987;28;20041;-57
2022/04/17 05:09:52;;;;;;;59.97;6.43;;;;;;;5.86;100.00;99185.38;5002559;28;20034;-55
2022/04/17 05:12:19;;;;;;;68.05;6.63;;;;;;;5.92;100.00;99183.63;5000793;28;20388;-57
2022/04/17 05:14:45;;;;;;;65.22;6.45;;;;;;;5.75;100.00;99177.63;5002023;28;20083;-57
2022/04/17 05:17:10;;;;;;;58.45;6.07;;;;;;;7.17;100.00;99171.69;5003498;28;20041;-56
2022/04/17 05:19:38;;;;;;;72.65;6.50;;;;;;;7.40;100.00;99164.56;4999435;28;20030;-58
2022/04/17 05:22:10;;;;;;;67.60;6.07;;;;;;;6.81;100.00;99169.38;5001221;28;20038;-58
2022/04/17 05:24:38;;;;;;;68.75;6.75;;;;;;;6.89;100.00;99166.72;5002127;28;20033;-58
2022/04/17 05:27:04;;;;;;;61.15;6.13;;;;;;;7.34;100.00;99169.81;5000151;28;20479;-57
2022/04/17 05:29:29;;;;;;;64.80;6.20;;;;;;;6.95;100.00;99172.72;5002041;28;20702;-56
2022/04/17 05:31:55;;;;;;;59.80;6.10;;;;;;;9.17;100.00;99169.22;4999241;28;20048;-61
2022/04/17 05:34:20;;;;;;;57.80;6.07;;;;;;;10.46;85.49;99164.19;5000546;28;20026;-57
2022/04/17 05:36:45;;;;;;;70.15;6.80;;;;;;;10.20;81.78;99165.56;5000759;28;20049;-57
2022/04/17 05:39:11;;;;;;;58.05;5.82;;;;;;;11.84;72.65;99167.75;5001015;28;20030;-56
2022/04/17 05:41:38;;;;;;;59.30;6.45;;;;;;;12.76;65.79;99163.38;4999555;28;20078;-58
2022/04/17 05:44:05;;;;;;;54.90;5.40;;;;;;;13.31;61.99;99161.63;5002091;28;20030;-59
2022/04/17 05:46:35;;;;;;;64.15;6.35;;;;;;;13.96;56.17;99164.63;5001708;28;20032;-58
2022/04/17 05:49:02;;;;;;;48.65;5.63;;;;;;;13.19;59.25;99162.00;5002228;28;20100;-57
2022/04/17 05:51:28;;;;;;;60.80;6.10;;;;;;;12.60;55.02;99163.00;4983742;28;20640;-59
2022/04/17 05:53:53;;;;;;;53.47;5.72;;;;;;;13.83;56.16;99164.19;4999970;28;20030;-57
2022/04/17 05:56:19;;;;;;;51.97;5.80;;;;;;;14.29;54.22;99161.66;5000685;28;20029;-59
2022/04/17 05:58:44;;;;;;;42.65;5.28;;;;;;;14.26;53.34;99162.63;5000913;28;20032;-58
2022/04/17 06:01:09;;;;;;;54.55;5.57;;;;;;;14.76;51.01;99157.22;4999902;28;20053;-55
2022/04/17 06:03:35;;;;;;;47.50;5.28;;;;;;;14.78;50.28;99157.19;5001413;28;20029;-59
2022/04/17 06:06:00;;;;;;;63.20;6.53;;;;;;;14.24;50.49;99160.06;4998552;28;20813;-58
2022/04/17 06:08:27;;;;;;;44.50;5.53;;;;;;;12.00;54.37;99152.50;5000583;28;20114;-57
2022/04/17 06:10:52;;;;;;;69.60;6.95;;;;;;;14.15;51.02;99149.03;4998769;28;20049;-57
2022/04/17 06:13:18;;;;;;;49.20;5.63;;;;;;;14.40;51.64;99157.69;5002038;28;20041;-58
2022/04/17 06:15:44;;;;;;;54.65;5.93;;;;;;;15.41;49.61;99147.53;4999801;28;20193;-58
2022/04/17 06:18:10;;;;;;;56.10;6.63;;;;;;;13.55;51.20;99154.69;5001383;28;20144;-57
2022/04/17 06:20:35;;;;;;;41.88;5.38;;;;;;;14.22;52.34;99155.78;5000703;28;20038;-58
2022/04/17 06:23:00;;;;;;;54.33;6.03;;;;;;;15.10;51.13;99155.84;5004920;28;20635;-58
2022/04/17 06:25:26;;;;;;;47.40;5.10;;;;;;;13.59;52.74;99156.28;5004972;28;20116;-58
2022/04/17 06:27:51;;;;;;;48.65;5.57;;;;;;;14.51;49.98;99156.44;5005851;28;20025;-59
2022/04/17 06:30:19;;;;;;;52.55;5.72;;;;;;;14.83;50.56;99163.97;5003727;28;20043;-60
2022/04/17 06:32:45;;;;;;;39.70;5.15;;;;;;;17.76;46.27;99155.91;5005340;28;20026;-59
2022/04/17 06:35:13;;;;;;;66.78;6.50;;;;;;;17.89;44.18;99161.44;5004457;28;20025;-60
2022/04/17 06:37:51;;;;;;;48.28;5.45;;;;;;;18.34;42.86;99151.13;5004780;28;20065;-59
2022/04/17 06:40:32;;;;;;;41.33;4.88;;;;;;;16.83;43.67;99153.53;5004877;28;20033;-58
2022/04/17 06:43:01;;;;;;;51.50;5.40;;;;;;;17.82;41.67;99158.22;5005841;28;20415;-57
2022/04/17 06:45:28;;;;;;;52.58;6.00;;;;;;;21.04;37.81;99152.66;5005485;28;20175;-57
2022/04/17 06:47:54;;;;;;;47.88;5.32;;;;;;;17.82;39.87;99160.84;5002582;28;20088;-56
2022/04/17 06:50:22;;;;;;;47.30;5.38;;;;;;;22.23;36.22;99150.78;5004477;28;20034;-57
2022/04/17 06:52:47;;;;;;;39.22;4.47;;;;;;;22.41;35.45;99153.97;5005026;28;20022;-57
2022/04/17 06:55:14;;;;;;;40.15;4.53;;;;;;;23.33;34.25;99145.53;5002477;28;20168;-58
2022/04/17 06:57:50;;;;;;;45.33;5.22;;;;;;;21.51;34.16;99159.28;5005743;28;20514;-56
2022/04/17 07:00:18;;;;;;;38.88;4.90;;;;;;;20.64;34.20;99151.75;4980435;28;20720;-57
2022/04/17 07:02:44;;;;;;;40.80;4.53;;;;;;;20.47;35.18;99150.97;5002656;28;20111;-58
2022/04/17 07:05:11;;;;;;;48.75;5.40;;;;;;;22.18;35.67;99146.75;5005177;28;20058;-58
2022/04/17 07:07:37;;;;;;;51.10;5.75;;;;;;;20.00;36.14;99149.53;5003995;28;20033;-57
2022/04/17 07:10:03;;;;;;;42.38;5.30;;;;;;;21.53;34.21;99145.91;5002391;28;20034;-57
2022/04/17 07:12:29;;;;;;;61.55;6.68;;;;;;;20.96;32.68;99142.53;5003255;28;20104;-58
2022/04/17 07:14:55;;;;;;;60.15;5.95;;;;;;;21.82;33.48;99148.38;4993922;28;20033;-58
2022/04/17 07:17:20;;;;;;;45.20;5.55;;;;;;;21.92;31.61;99149.44;5002147;28;20034;-57
2022/04/17 07:19:46;;;;;;;41.55;5.20;;;;;;;19.42;34.72;99152.03;5005378;28;20022;-58
2022/04/17 07:22:13;;;;;;;61.45;5.95;;;;;;;19.76;34.37;99146.59;5002742;28;20664;-58
2022/04/17 07:24:40;;;;;;;53.88;5.53;;;;;;;21.95;31.60;99135.94;5007214;28;20029;-58
2022/04/17 07:27:06;;;;;;;61.33;5.80;;;;;;;19.89;34.96;99130.78;5004247;28;20042;-58
2022/04/17 07:29:31;;;;;;;53.28;5.38;;;;;;;21.95;31.50;99125.31;5000072;28;20387;-55
2022/04/17 07:31:57;;;;;;;48.53;5.35;;;;;;;22.05;33.09;99123.69;5005914;28;20100;-58
2022/04/17 07:34:22;;;;;;;49.67;5.10;;;;;;;21.97;31.39;99117.25;5006979;28;20061;-58
2022/04/17 07:36:52;;;;;;;56.10;5.70;;;;;;;22.23;31.55;99107.41;5005097;28;20049;-56
2022/04/17 07:39:18;;;;;;;53.97;5.65;;;;;;;24.38;28.88;99104.47;5004192;28;20026;-57
2022/04/17 07:41:45;;;;;;;62.10;6.00;;;;;;;22.69;31.64;99106.75;5002711;28;21075;-57
2022/04/17 07:44:13;;;;;;;52.97;5.55;;;;;;;22.77;30.15;99100.88;4991724;28;20622;-58
2022/04/17 07:46:39;;;;;;;42.20;5.03;;;;;;;23.58;29.25;99100.09;5004446;28;20173;-57
2022/04/17 07:49:05;;;;;;;52.05;5.43;;;;;;;25.58;28.17;99091.91;5002496;28;20029;-59
2022/04/17 07:51:30;;;;;;;42.63;4.95;;;;;;;23.64;29.98;99088.13;5002847;28;20038;-60
2022/04/17 07:53:55;;;;;;;49.22;5.63;;;;;;;23.12;30.69;99076.97;5003219;28;20069;-60
2022/04/17 07:56:21;;;;;;;52.43;5.67;;;;;;;21.43;31.68;99081.97;5002364;28;20065;-57
2022/04/17 07:58:46;;;;;;;47.33;5.03;;;;;;;25.03;28.79;99080.53;5003589;28;20276;-59
2022/04/17 08:01:14;;;;;;;49.08;5.43;;;;;;;25.48;27.82;99083.00;5003535;28;20149;-58
2022/04/17 08:06:05;;;;;;;52.80;5.78;;;;;;;22.31;30.09;99078.50;5002709;28;20034;-58
2022/04/17 08:08:34;;;;;;;48.67;5.53;;;;;;;25.49;27.22;99078.50;5000585;28;20705;-60
2022/04/17 08:11:00;;;;;;;54.30;5.72;;;;;;;22.18;30.02;99072.34;5001349;28;20046;-60
2022/04/17 08:13:25;;;;;;;48.67;5.38;;;;;;;24.75;28.17;99071.31;5002382;28;20247;-60
2022/04/17 08:15:51;;;;;;;45.97;5.30;;;;;;;26.02;26.46;99062.31;5004428;28;20037;-58
2022/04/17 08:18:16;;;;;;;43.33;5.00;;;;;;;23.79;27.90;99064.75;5002512;28;20033;-59
2022/04/17 08:20:42;;;;;;;46.22;5.28;;;;;;;27.28;25.34;99066.16;5003036;28;20121;-60
2022/04/17 08:23:08;;;;;;;50.20;5.50;;;;;;;24.52;27.18;99063.41;5004920;28;20514;-56
2022/04/17 08:25:33;;;;;;;47.15;5.30;;;;;;;22.03;28.34;99069.81;5001870;28;20053;-60
2022/04/17 08:27:58;;;;;;;45.67;5.03;;;;;;;26.33;25.42;99060.41;5002160;28;20029;-58
2022/04/17 08:30:30;;;;;;;52.13;5.10;;;;;;;24.18;27.83;99065.25;5003360;28;20763;-59
2022/04/17 08:32:56;;;;;;;42.80;4.38;;;;;;;24.08;27.27;99061.63;5000037;28;20103;-57
2022/04/17 08:35:22;;;;;;;50.75;5.28;;;;;;;24.55;27.23;99055.13;5000479;28;20037;-57
2022/04/17 08:37:49;;;;;;;39.35;4.43;;;;;;;23.88;28.39;99050.75;5001551;28;20026;-59
2022/04/17 08:40:15;;;;;;;51.70;5.32;;;;;;;24.79;26.92;99051.41;5001074;28;20053;-58
2022/04/17 08:42:41;;;;;;;52.60;5.28;;;;;;;23.62;27.37;99042.97;5002713;28;20500;-58
2022/04/17 08:45:11;;;;;;;48.60;5.20;;;;;;;23.40;27.27;99056.25;5001987;28;20120;-59
2022/04/17 08:47:38;;;;;;;52.45;4.93;;;;;;;21.14;29.47;99049.44;5004271;28;20035;-60
2022/04/17 08:50:08;;;;;;;43.40;4.35;;;;;;;22.91;28.28;99040.34;5001430;28;20542;-59
2022/04/17 08:52:34;;;;;;;52.97;5.43;;;;;;;23.19;26.78;99043.63;4999897;28;21050;-57
2022/04/17 08:55:01;;;;;;;40.90;4.43;;;;;;;22.79;28.24;99043.97;5005182;28;20628;-59
2022/04/17 08:57:26;;;;;;;49.67;5.07;;;;;;;23.60;29.55;99046.69;5002178;28;20052;-61
2022/04/17 08:59:52;;;;;;;44.28;5.10;;;;;;;24.40;26.67;99046.53;5001594;28;20022;-57
2022/04/17 09:02:18;;;;;;;49.13;5.07;;;;;;;23.69;26.78;99048.63;5001927;28;20091;-59
2022/04/17 09:04:45;;;;;;;68.30;6.05;;;;;;;23.64;27.99;99043.69;5003222;28;20041;-60
2022/04/17 09:07:11;;;;;;;49.38;5.13;;;;;;;26.11;25.46;99039.28;5000951;28;20048;-58
2022/04/17 09:09:48;;;;;;;49.47;5.22;;;;;;;23.04;27.53;99034.16;5005907;28;20085;-59
2022/04/17 09:12:25;;;;;;;49.15;5.13;;;;;;;23.81;26.98;99036.22;5001524;28;20504;-58
2022/04/17 09:14:51;;;;;;;75.43;6.78;;;;;;;23.42;27.44;99027.69;5004079;28;20029;-60
2022/04/17 09:17:18;;;;;;;49.22;4.85;;;;;;;24.03;26.40;99033.53;5000741;28;20034;-59
2022/04/17 09:19:44;;;;;;;55.67;5.30;;;;;;;22.43;28.67;99028.94;5000905;28;20053;-61
2022/04/17 09:22:09;;;;;;;40.50;4.38;;;;;;;22.68;28.76;99038.56;5000368;28;20165;-59
2022/04/17 09:24:41;;;;;;;43.63;4.47;;;;;;;24.62;30.14;99029.63;5001510;28;20029;-58
2022/04/17 09:27:08;;;;;;;46.13;4.72;;;;;;;21.48;27.69;99023.25;5001024;28;20042;-60
2022/04/17 09:29:38;;;;;;;45.75;4.70;;;;;;;22.69;26.75;99024.31;5002771;28;20049;-60
2022/04/17 09:32:04;;;;;;;57.08;5.63;;;;;;;23.53;27.01;99021.53;5000044;28;20041;-59
2022/04/17 09:34:47;;;;;;;42.35;4.70;;;;;;;22.68;28.26;99011.97;5004423;28;20044;-59
2022/04/17 09:37:19;;;;;;;49.33;4.85;;;;;;;24.20;26.96;99010.81;5001668;28;20037;-60
2022/04/17 09:39:46;;;;;;;47.05;5.05;;;;;;;24.47;24.68;99012.22;5000603;28;20034;-60
2022/04/17 09:42:12;;;;;;;46.20;4.95;;;;;;;25.49;23.61;99023.22;5002321;28;20578;-60
2022/04/17 09:44:46;;;;;;;47.85;4.78;;;;;;;22.38;26.35;99010.63;4999958;28;20113;-57
2022/04/17 09:47:23;;;;;;;48.22;5.18;;;;;;;23.47;27.02;99005.06;4999540;28;20056;-60
2022/04/17 09:50:06;;;;;;;40.50;4.55;;;;;;;20.53;28.09;99010.13;5002561;28;20503;-59
2022/04/17 09:52:41;;;;;;;47.08;5.05;;;;;;;20.22;28.00;98992.75;5002962;28;20049;-59
2022/04/17 09:55:07;;;;;;;59.50;5.68;;;;;;;22.42;28.36;99000.63;5002660;28;20037;-58
2022/04/17 09:57:33;;;;;;;53.13;5.00;;;;;;;23.00;27.09;98988.28;5006063;28;20038;-60
2022/04/17 10:00:21;;;;;;;59.50;5.40;;;;;;;22.73;27.56;98987.72;5007809;28;20049;-60
2022/04/17 10:02:47;;;;;;;55.70;5.45;;;;;;;21.68;28.46;98995.31;5005180;28;20526;-57
2022/04/17 10:05:16;;;;;;;51.75;5.25;;;;;;;22.97;26.68;98980.50;5003401;28;20033;-58
2022/04/17 10:07:44;;;;;;;51.42;5.30;;;;;;;18.91;31.18;98981.44;5003669;28;20091;-60
2022/04/17 10:10:11;;;;;;;55.30;5.50;;;;;;;19.42;31.12;98985.34;5003059;28;20057;-59
2022/04/17 10:12:39;;;;;;;55.13;5.38;;;;;;;18.45;32.29;98971.75;5007261;28;20030;-60
2022/04/17 10:15:07;;;;;;;51.92;5.60;;;;;;;18.77;31.78;98980.44;5004215;28;20033;-59
2022/04/17 10:17:34;;;;;;;45.13;5.10;;;;;;;20.09;30.88;98971.50;5004014;28;20038;-59
2022/04/17 10:20:08;;;;;;;57.50;5.82;;;;;;;19.89;30.83;98966.59;5005921;28;20780;-60
2022/04/17 10:22:39;;;;;;;51.13;5.35;;;;;;;22.13;27.56;98953.97;5002953;28;20515;-60
2022/04/17 10:25:06;;;;;;;65.28;5.80;;;;;;;21.88;28.62;98959.38;5004322;28;20045;-59
2022/04/17 10:28:07;;;;;;;54.83;5.20;;;;;;;23.09;27.28;98946.84;4983075;28;20054;-58
2022/04/17 10:31:00;;;;;;;58.25;5.78;;;;;;;19.10;31.01;98933.56;4981376;28;20093;-59
2022/04/17 10:33:44;;;;;;;58.83;5.55;;;;;;;20.68;30.90;98946.50;5004911;28;20084;-59
2022/04/17 10:36:19;;;;;;;44.28;5.07;;;;;;;17.63;32.68;98936.69;5005044;28;20048;-57
2022/04/17 10:38:59;;;;;;;56.78;5.63;;;;;;;19.63;31.78;98926.75;5004904;28;20794;-58
2022/04/17 10:41:24;;;;;;;51.67;5.18;;;;;;;21.20;30.34;98919.00;5003725;28;20541;-58
2022/04/17 10:43:50;;;;;;;44.63;4.72;;;;;;;20.34;30.52;98916.91;5005423;28;20504;-58
2022/04/17 10:46:20;;;;;;;55.03;5.30;;;;;;;21.05;31.64;98910.34;5003837;28;20741;-57
2022/04/17 10:48:49;;;;;;;48.17;4.95;;;;;;;19.77;31.10;98902.06;5001438;28;20077;-58
2022/04/17 10:51:22;;;;;;;60.83;5.85;;;;;;;22.41;28.43;98897.94;5004785;28;20116;-59
2022/04/17 10:54:07;;;;;;;51.58;5.43;;;;;;;20.71;29.41;98882.63;5003706;28;20061;-57
2022/04/17 10:56:38;;;;;;;57.80;5.65;;;;;;;19.52;30.73;98886.88;5001780;28;20069;-57
2022/04/17 10:59:25;;;;;;;44.17;5.22;;;;;;;19.38;31.17;98885.97;5005948;28;20034;-57
2022/04/17 11:01:52;;;;;;;67.13;5.82;;;;;;;22.07;28.19;98880.00;4993969;28;20064;-58
2022/04/17 11:04:36;;;;;;;49.53;5.00;;;;;;;19.12;30.79;98879.66;5003793;28;20420;-56
2022/04/17 11:07:05;;;;;;;47.15;4.75;;;;;;;21.43;28.67;98868.75;5002582;28;20064;-57
2022/04/17 11:09:36;;;;;;;58.80;5.50;;;;;;;19.96;30.26;98869.94;5004465;28;20018;-57
2022/04/17 11:12:10;;;;;;;56.95;5.03;;;;;;;20.34;27.82;98870.03;5004645;28;20045;-57
2022/04/17 11:14:38;;;;;;;48.80;5.07;;;;;;;21.03;26.99;98859.19;5003990;28;20123;-57
2022/04/17 11:17:08;;;;;;;57.25;5.20;;;;;;;19.38;27.24;98864.81;5003550;28;20549;-56
2022/04/17 11:19:44;;;;;;;50.30;4.65;;;;;;;20.74;27.06;98850.63;5002761;28;20654;-61
2022/04/17 11:22:16;;;;;;;50.75;4.78;;;;;;;19.23;27.80;98860.50;5004396;28;20061;-57
2022/04/17 11:24:54;;;;;;;;;;;;;;;19.09;27.37;98844.63;5003225;28;20564;-58
2022/04/17 11:27:45;;;;;;;43.65;4.43;;;;;;;19.98;27.75;98866.28;5002839;28;19952;-57
2022/04/17 11:30:16;;;;;;;61.83;5.80;;;;;;;19.06;28.40;98856.25;5004273;28;20040;-58
2022/04/17 11:32:41;;;;;;;52.63;5.00;;;;;;;19.76;29.31;98864.19;5001904;28;20053;-56
2022/04/17 11:35:09;;;;;;;68.73;6.17;;;;;;;17.87;30.79;98852.72;5002993;28;20038;-57
2022/04/17 11:37:35;;;;;;;52.58;4.70;;;;;;;19.18;29.68;98862.56;5005570;28;20280;-56
2022/04/17 11:40:16;;;;;;;68.55;5.88;;;;;;;18.86;29.63;98857.50;5003373;28;20365;-57
2022/04/17 11:42:46;;;;;;;61.40;5.75;;;;;;;17.15;31.24;98847.00;5002908;28;20041;-56